Aviation Digital Data Service (ADDS)

Output produced by METARs form (1200 UTC 19 January 2019)
found at http://www.aviationweather.gov/metar/data/
 
METAR text: FKKD 191100Z VRB02KT 9999 BKN014 FEW017CB 31/26 Q1012 NOSIG
Conditions at: FKKD (DOUALA (CIV/MIL), CM) observed 1100 UTC 19 January 2019
Temperature: 31.0°C (88°F)
Dewpoint: 26.0°C (79°F) [RH = 75%]
Pressure (altimeter): 29.88 inches Hg (1012.0 mb)
Winds: variable direction winds at 2 MPH (2 knots; 1.0 m/s)
Visibility: 6 or more miles (10+ km)
Ceiling: 1400 feet AGL
Clouds: broken clouds at 1400 feet AGL
few clouds at 1700 feet AGL
Weather: no significant weather observed at this time

METAR text: FKKD 191000Z 29005KT 9999 SCT008 BKN013 FEW016CB 31/26 Q1013 NOSIG
Conditions at: FKKD (DOUALA (CIV/MIL), CM) observed 1000 UTC 19 January 2019
Temperature: 31.0°C (88°F)
Dewpoint: 26.0°C (79°F) [RH = 75%]
Pressure (altimeter): 29.91 inches Hg (1013.0 mb)
Winds: from the WNW (290 degrees) at 6 MPH (5 knots; 2.6 m/s)
Visibility: 6 or more miles (10+ km)
Ceiling: 1300 feet AGL
Clouds: scattered clouds at 800 feet AGL
broken clouds at 1300 feet AGL
few clouds at 1600 feet AGL
Weather: no significant weather observed at this time

METAR text: FKKD 190900Z VRB03KT 6000 FEW008 BKN013 FEW016CB 30/26 Q1013 NOSIG
Conditions at: FKKD (DOUALA (CIV/MIL), CM) observed 0900 UTC 19 January 2019
Temperature: 30.0°C (86°F)
Dewpoint: 26.0°C (79°F) [RH = 79%]
Pressure (altimeter): 29.91 inches Hg (1013.0 mb)
Winds: variable direction winds at 3 MPH (3 knots; 1.5 m/s)
Visibility: 4 miles ( 6 km)
Ceiling: 1300 feet AGL
Clouds: few clouds at 800 feet AGL
broken clouds at 1300 feet AGL
few clouds at 1600 feet AGL
Weather: no significant weather observed at this time

METAR text: FKKD 190800Z 00000KT 4000 BR FEW008 BKN013 FEW016CB 29/26 Q1013 BECMG 6000 NSW
Conditions at: FKKD (DOUALA (CIV/MIL), CM) observed 0800 UTC 19 January 2019
Temperature: 29.0°C (84°F)
Dewpoint: 26.0°C (79°F) [RH = 84%]
Pressure (altimeter): 29.91 inches Hg (1013.0 mb)
Winds: calm
Visibility: 2.49 miles (4.01 km)
Ceiling: 1300 feet AGL
Clouds: few clouds at 800 feet AGL
broken clouds at 1300 feet AGL
few clouds at 1600 feet AGL
Weather: BR  (mist)

METAR text: FKKD 190700Z VRB02KT 1800 TS BR FEW006 SCT012 FEW015CB 26/26 Q1012 BECMG 4000 BR
Conditions at: FKKD (DOUALA (CIV/MIL), CM) observed 0700 UTC 19 January 2019
Temperature: 26.0°C (79°F)
Dewpoint: 26.0°C (79°F) [RH = 100%]
Pressure (altimeter): 29.88 inches Hg (1012.0 mb)
Winds: variable direction winds at 2 MPH (2 knots; 1.0 m/s)
Visibility: 1.12 miles (1.80 km)
Ceiling: at least 12,000 feet AGL
Clouds: few clouds at 600 feet AGL
scattered clouds at 1200 feet AGL
few clouds at 1500 feet AGL
Weather: TS BR  (thunderstorm, mist)

METAR text: FKKD 190600Z VRB02KT 1600 TS BR FEW006 SCT012 FEW015CB 26/25 Q1012 TEMPO 1000 TS BR
Conditions at: FKKD (DOUALA (CIV/MIL), CM) observed 0600 UTC 19 January 2019
Temperature: 26.0°C (79°F)
Dewpoint: 25.0°C (77°F) [RH = 94%]
Pressure (altimeter): 29.88 inches Hg (1012.0 mb)
Winds: variable direction winds at 2 MPH (2 knots; 1.0 m/s)
Visibility: 0.99 miles (1.59 km)
Ceiling: at least 12,000 feet AGL
Clouds: few clouds at 600 feet AGL
scattered clouds at 1200 feet AGL
few clouds at 1500 feet AGL
Weather: TS BR  (thunderstorm, mist)

METAR text: FKKD 190500Z VRB02KT 4000 BR BKN014 FEW016CB 26/26 Q1011 RETS NOSIG
Conditions at: FKKD (DOUALA (CIV/MIL), CM) observed 0500 UTC 19 January 2019
Temperature: 26.0°C (79°F)
Dewpoint: 26.0°C (79°F) [RH = 100%]
Pressure (altimeter): 29.85 inches Hg (1011.0 mb)
Winds: variable direction winds at 2 MPH (2 knots; 1.0 m/s)
Visibility: 2.49 miles (4.01 km)
Ceiling: 1400 feet AGL
Clouds: broken clouds at 1400 feet AGL
few clouds at 1600 feet AGL
Weather: BR  (mist)

METAR text: FKKD 190400Z 00000KT 6000 TS BKN013 FEW016CB 26/26 Q1011 NOSIG
Conditions at: FKKD (DOUALA (CIV/MIL), CM) observed 0400 UTC 19 January 2019
Temperature: 26.0°C (79°F)
Dewpoint: 26.0°C (79°F) [RH = 100%]
Pressure (altimeter): 29.85 inches Hg (1011.0 mb)
Winds: calm
Visibility: 4 miles ( 6 km)
Ceiling: 1300 feet AGL
Clouds: broken clouds at 1300 feet AGL
few clouds at 1600 feet AGL
Weather: TS  (thunderstorm)

METAR text: FKKD 190300Z VRB02KT 6000 TSDZ SCT006 BKN013 FEW016CB 26/26 Q1011 TEMPO 3000 -TSRA
Conditions at: FKKD (DOUALA (CIV/MIL), CM) observed 0300 UTC 19 January 2019
Temperature: 26.0°C (79°F)
Dewpoint: 26.0°C (79°F) [RH = 100%]
Pressure (altimeter): 29.85 inches Hg (1011.0 mb)
Winds: variable direction winds at 2 MPH (2 knots; 1.0 m/s)
Visibility: 4 miles ( 6 km)
Ceiling: 1300 feet AGL
Clouds: scattered clouds at 600 feet AGL
broken clouds at 1300 feet AGL
few clouds at 1600 feet AGL
Weather: TSDZ  (unknown weather)

METAR text: FKKD 190200Z 02004KT 7000 BKN013 FEW016CB 26/26 Q1011 NOSIG
Conditions at: FKKD (DOUALA (CIV/MIL), CM) observed 0200 UTC 19 January 2019
Temperature: 26.0°C (79°F)
Dewpoint: 26.0°C (79°F) [RH = 100%]
Pressure (altimeter): 29.85 inches Hg (1011.0 mb)
Winds: from the NNE (20 degrees) at 5 MPH (4 knots; 2.1 m/s)
Visibility: 4 miles ( 7 km)
Ceiling: 1300 feet AGL
Clouds: broken clouds at 1300 feet AGL
few clouds at 1600 feet AGL
Weather: no significant weather observed at this time

METAR text: FKKD 190100Z VRB02KT 9999 TS BKN013 FEW016CB 26/25 Q1011 NOSIG
Conditions at: FKKD (DOUALA (CIV/MIL), CM) observed 0100 UTC 19 January 2019
Temperature: 26.0°C (79°F)
Dewpoint: 25.0°C (77°F) [RH = 94%]
Pressure (altimeter): 29.85 inches Hg (1011.0 mb)
Winds: variable direction winds at 2 MPH (2 knots; 1.0 m/s)
Visibility: 6 or more miles (10+ km)
Ceiling: 1300 feet AGL
Clouds: broken clouds at 1300 feet AGL
few clouds at 1600 feet AGL
Weather: TS  (thunderstorm)

METAR text: FKKD 182300Z 19004KT 140V240 9999 TS BKN013 FEW016CB 26/26 Q1012 NOSIG
Conditions at: FKKD (DOUALA (CIV/MIL), CM) observed 2300 UTC 18 January 2019
Temperature: 26.0°C (79°F)
Dewpoint: 26.0°C (79°F) [RH = 100%]
Pressure (altimeter): 29.88 inches Hg (1012.0 mb)
Winds: from the S (190 degrees) at 5 MPH (4 knots; 2.1 m/s)
Visibility: 6 or more miles (10+ km)
Ceiling: 1300 feet AGL
Clouds: broken clouds at 1300 feet AGL
few clouds at 1600 feet AGL
Weather: TS  (thunderstorm)

METAR text: FKKD 182200Z 19004KT 140V220 9999 -RA BKN012 FEW015CB 27/26 Q1012 NOSIG
Conditions at: FKKD (DOUALA (CIV/MIL), CM) observed 2200 UTC 18 January 2019
Temperature: 27.0°C (81°F)
Dewpoint: 26.0°C (79°F) [RH = 94%]
Pressure (altimeter): 29.88 inches Hg (1012.0 mb)
Winds: from the S (190 degrees) at 5 MPH (4 knots; 2.1 m/s)
Visibility: 6 or more miles (10+ km)
Ceiling: 1200 feet AGL
Clouds: broken clouds at 1200 feet AGL
few clouds at 1500 feet AGL
Weather: -RA  (light rain)

METAR text: FKKD 182100Z VRB03KT 9999 SCT013 FEW016CB 28/26 Q1012 NOSIG
Conditions at: FKKD (DOUALA (CIV/MIL), CM) observed 2100 UTC 18 January 2019
Temperature: 28.0°C (82°F)
Dewpoint: 26.0°C (79°F) [RH = 89%]
Pressure (altimeter): 29.88 inches Hg (1012.0 mb)
Winds: variable direction winds at 3 MPH (3 knots; 1.5 m/s)
Visibility: 6 or more miles (10+ km)
Ceiling: at least 12,000 feet AGL
Clouds: scattered clouds at 1300 feet AGL
few clouds at 1600 feet AGL
Weather: no significant weather observed at this time

METAR text: FKKD 182000Z 21004KT 180V270 9999 SCT013 FEW016CB 28/26 Q1012 NOSIG
Conditions at: FKKD (DOUALA (CIV/MIL), CM) observed 2000 UTC 18 January 2019
Temperature: 28.0°C (82°F)
Dewpoint: 26.0°C (79°F) [RH = 89%]
Pressure (altimeter): 29.88 inches Hg (1012.0 mb)
Winds: from the SSW (210 degrees) at 5 MPH (4 knots; 2.1 m/s)
Visibility: 6 or more miles (10+ km)
Ceiling: at least 12,000 feet AGL
Clouds: scattered clouds at 1300 feet AGL
few clouds at 1600 feet AGL
Weather: no significant weather observed at this time

METAR text: FKKD 181900Z 22005KT 180V270 9999 SCT013 FEW016CB 28/26 Q1011 NOSIG
Conditions at: FKKD (DOUALA (CIV/MIL), CM) observed 1900 UTC 18 January 2019
Temperature: 28.0°C (82°F)
Dewpoint: 26.0°C (79°F) [RH = 89%]
Pressure (altimeter): 29.85 inches Hg (1011.0 mb)
Winds: from the SW (220 degrees) at 6 MPH (5 knots; 2.6 m/s)
Visibility: 6 or more miles (10+ km)
Ceiling: at least 12,000 feet AGL
Clouds: scattered clouds at 1300 feet AGL
few clouds at 1600 feet AGL
Weather: no significant weather observed at this time

METAR text: FKKD 181800Z 22005KT 170V290 9999 BKN012 FEW015CB 28/26 Q1010 NOSIG
Conditions at: FKKD (DOUALA (CIV/MIL), CM) observed 1800 UTC 18 January 2019
Temperature: 28.0°C (82°F)
Dewpoint: 26.0°C (79°F) [RH = 89%]
Pressure (altimeter): 29.82 inches Hg (1010.0 mb)
Winds: from the SW (220 degrees) at 6 MPH (5 knots; 2.6 m/s)
Visibility: 6 or more miles (10+ km)
Ceiling: 1200 feet AGL
Clouds: broken clouds at 1200 feet AGL
few clouds at 1500 feet AGL
Weather: no significant weather observed at this time

METAR text: FKKD 181700Z 22007KT 180V270 9999 SCT013 FEW016CB 29/25 Q1009 NOSIG
Conditions at: FKKD (DOUALA (CIV/MIL), CM) observed 1700 UTC 18 January 2019
Temperature: 29.0°C (84°F)
Dewpoint: 25.0°C (77°F) [RH = 79%]
Pressure (altimeter): 29.79 inches Hg (1009.0 mb)
Winds: from the SW (220 degrees) at 8 MPH (7 knots; 3.6 m/s)
Visibility: 6 or more miles (10+ km)
Ceiling: at least 12,000 feet AGL
Clouds: scattered clouds at 1300 feet AGL
few clouds at 1600 feet AGL
Weather: no significant weather observed at this time

METAR text: FKKD 181600Z 23007KT 160V290 9999 FEW008 SCT013 FEW016CB 30/26 Q1009 NOSIG
Conditions at: FKKD (DOUALA (CIV/MIL), CM) observed 1600 UTC 18 January 2019
Temperature: 30.0°C (86°F)
Dewpoint: 26.0°C (79°F) [RH = 79%]
Pressure (altimeter): 29.79 inches Hg (1009.0 mb)
Winds: from the SW (230 degrees) at 8 MPH (7 knots; 3.6 m/s)
Visibility: 6 or more miles (10+ km)
Ceiling: at least 12,000 feet AGL
Clouds: few clouds at 800 feet AGL
scattered clouds at 1300 feet AGL
few clouds at 1600 feet AGL
Weather: no significant weather observed at this time

METAR text: FKKD 181500Z 23006KT 180V280 9999 SCT013 FEW016CB 31/26 Q1009 NOSIG
Conditions at: FKKD (DOUALA (CIV/MIL), CM) observed 1500 UTC 18 January 2019
Temperature: 31.0°C (88°F)
Dewpoint: 26.0°C (79°F) [RH = 75%]
Pressure (altimeter): 29.79 inches Hg (1009.0 mb)
Winds: from the SW (230 degrees) at 7 MPH (6 knots; 3.1 m/s)
Visibility: 6 or more miles (10+ km)
Ceiling: at least 12,000 feet AGL
Clouds: scattered clouds at 1300 feet AGL
few clouds at 1600 feet AGL
Weather: no significant weather observed at this time

METAR text: FKKD 181400Z 23007KT 170V280 9999 BKN016 FEW020CB 32/26 Q1009 NOSIG
Conditions at: FKKD (DOUALA (CIV/MIL), CM) observed 1400 UTC 18 January 2019
Temperature: 32.0°C (90°F)
Dewpoint: 26.0°C (79°F) [RH = 71%]
Pressure (altimeter): 29.79 inches Hg (1009.0 mb)
Winds: from the SW (230 degrees) at 8 MPH (7 knots; 3.6 m/s)
Visibility: 6 or more miles (10+ km)
Ceiling: 1600 feet AGL
Clouds: broken clouds at 1600 feet AGL
few clouds at 2000 feet AGL
Weather: no significant weather observed at this time

METAR text: FKKD 181300Z 24007KT 190V280 9999 SCT013 FEW016CB 33/26 Q1010 NOSIG
Conditions at: FKKD (DOUALA (CIV/MIL), CM) observed 1300 UTC 18 January 2019
Temperature: 33.0°C (91°F)
Dewpoint: 26.0°C (79°F) [RH = 67%]
Pressure (altimeter): 29.82 inches Hg (1010.0 mb)
Winds: from the WSW (240 degrees) at 8 MPH (7 knots; 3.6 m/s)
Visibility: 6 or more miles (10+ km)
Ceiling: at least 12,000 feet AGL
Clouds: scattered clouds at 1300 feet AGL
few clouds at 1600 feet AGL
Weather: no significant weather observed at this time

METAR text: FKKD 181200Z 23005KT 180V300 9999 SCT013 BKN016 FEW020CB 33/26 Q1011 NOSIG
Conditions at: FKKD (DOUALA (CIV/MIL), CM) observed 1200 UTC 18 January 2019
Temperature: 33.0°C (91°F)
Dewpoint: 26.0°C (79°F) [RH = 67%]
Pressure (altimeter): 29.85 inches Hg (1011.0 mb)
Winds: from the SW (230 degrees) at 6 MPH (5 knots; 2.6 m/s)
Visibility: 6 or more miles (10+ km)
Ceiling: 1600 feet AGL
Clouds: scattered clouds at 1300 feet AGL
broken clouds at 1600 feet AGL
few clouds at 2000 feet AGL
Weather: no significant weather observed at this time

METAR text: FKKD 181100Z 25004KT 170V300 9999 BKN016 FEW020CB 31/26 Q1011 NOSIG
Conditions at: FKKD (DOUALA (CIV/MIL), CM) observed 1100 UTC 18 January 2019
Temperature: 31.0°C (88°F)
Dewpoint: 26.0°C (79°F) [RH = 75%]
Pressure (altimeter): 29.85 inches Hg (1011.0 mb)
Winds: from the WSW (250 degrees) at 5 MPH (4 knots; 2.1 m/s)
Visibility: 6 or more miles (10+ km)
Ceiling: 1600 feet AGL
Clouds: broken clouds at 1600 feet AGL
few clouds at 2000 feet AGL
Weather: no significant weather observed at this time

METAR text: FKKD 181000Z VRB02KT 9999/ BKN016 FEW020CB 31/26 Q1012 NOSIG
Conditions at: FKKD (DOUALA (CIV/MIL), CM) observed 1000 UTC 18 January 2019
Temperature: 0.0°C (32°F)
Dewpoint: missing
Pressure (altimeter): 29.88 inches Hg (1012.0 mb)
Winds: variable direction winds at 2 MPH (2 knots; 1.0 m/s)
Visibility: missing
Ceiling: 1600 feet AGL
Clouds: broken clouds at 1600 feet AGL
few clouds at 2000 feet AGL
Weather: no significant weather observed at this time

METAR text: FKKD 180900Z VRB02KT 7000 SCT013 FEW016CB 29/26 Q1013 NOSIG
Conditions at: FKKD (DOUALA (CIV/MIL), CM) observed 0900 UTC 18 January 2019
Temperature: 29.0°C (84°F)
Dewpoint: 26.0°C (79°F) [RH = 84%]
Pressure (altimeter): 29.91 inches Hg (1013.0 mb)
Winds: variable direction winds at 2 MPH (2 knots; 1.0 m/s)
Visibility: 4 miles ( 7 km)
Ceiling: at least 12,000 feet AGL
Clouds: scattered clouds at 1300 feet AGL
few clouds at 1600 feet AGL
Weather: no significant weather observed at this time

METAR text: FKKD 180800Z 14004KT 090V180 6000 SCT013 FEW016CB 28/26 Q1013 RETS NOSIG
Conditions at: FKKD (DOUALA (CIV/MIL), CM) observed 0800 UTC 18 January 2019
Temperature: 28.0°C (82°F)
Dewpoint: 26.0°C (79°F) [RH = 89%]
Pressure (altimeter): 29.91 inches Hg (1013.0 mb)
Winds: from the SE (140 degrees) at 5 MPH (4 knots; 2.1 m/s)
Visibility: 4 miles ( 6 km)
Ceiling: at least 12,000 feet AGL
Clouds: scattered clouds at 1300 feet AGL
few clouds at 1600 feet AGL
Weather: no significant weather observed at this time

METAR text: FKKD 180700Z 12004KT 090V160 6000 SCT013 FEW016CB 26/25 Q1012 RETS TEMPO 4000 BR
Conditions at: FKKD (DOUALA (CIV/MIL), CM) observed 0700 UTC 18 January 2019
Temperature: 26.0°C (79°F)
Dewpoint: 25.0°C (77°F) [RH = 94%]
Pressure (altimeter): 29.88 inches Hg (1012.0 mb)
Winds: from the ESE (120 degrees) at 5 MPH (4 knots; 2.1 m/s)
Visibility: 4 miles ( 6 km)
Ceiling: at least 12,000 feet AGL
Clouds: scattered clouds at 1300 feet AGL
few clouds at 1600 feet AGL
Weather: no significant weather observed at this time

METAR text: FKKD 180600Z VRB03KT 6000 SCT003 SCT012 FEW015CB 26/25 Q1011 RETS TEMPO 4000 BR
Conditions at: FKKD (DOUALA (CIV/MIL), CM) observed 0600 UTC 18 January 2019
Temperature: 26.0°C (79°F)
Dewpoint: 25.0°C (77°F) [RH = 94%]
Pressure (altimeter): 29.85 inches Hg (1011.0 mb)
Winds: variable direction winds at 3 MPH (3 knots; 1.5 m/s)
Visibility: 4 miles ( 6 km)
Ceiling: at least 12,000 feet AGL
Clouds: scattered clouds at 300 feet AGL
scattered clouds at 1200 feet AGL
few clouds at 1500 feet AGL
Weather: no significant weather observed at this time

METAR text: FKKD 180500Z 12005KT 8000 TS SCT014 FEW016CB 26/26 Q1010 NOSIG
Conditions at: FKKD (DOUALA (CIV/MIL), CM) observed 0500 UTC 18 January 2019
Temperature: 26.0°C (79°F)
Dewpoint: 26.0°C (79°F) [RH = 100%]
Pressure (altimeter): 29.82 inches Hg (1010.0 mb)
Winds: from the ESE (120 degrees) at 6 MPH (5 knots; 2.6 m/s)
Visibility: 5 miles ( 8 km)
Ceiling: at least 12,000 feet AGL
Clouds: scattered clouds at 1400 feet AGL
few clouds at 1600 feet AGL
Weather: TS  (thunderstorm)

METAR text: FKKD 180400Z 09004KT 8000 TS SCT014 FEW016CB 26/26 Q1010 NOSIG
Conditions at: FKKD (DOUALA (CIV/MIL), CM) observed 0400 UTC 18 January 2019
Temperature: 26.0°C (79°F)
Dewpoint: 26.0°C (79°F) [RH = 100%]
Pressure (altimeter): 29.82 inches Hg (1010.0 mb)
Winds: from the E (90 degrees) at 5 MPH (4 knots; 2.1 m/s)
Visibility: 5 miles ( 8 km)
Ceiling: at least 12,000 feet AGL
Clouds: scattered clouds at 1400 feet AGL
few clouds at 1600 feet AGL
Weather: TS  (thunderstorm)

METAR text: FKKD 180200Z VRB01KT 8000 BKN013 FEW016CB 27/26 Q1010 NOSIG
Conditions at: FKKD (DOUALA (CIV/MIL), CM) observed 0200 UTC 18 January 2019
Temperature: 27.0°C (81°F)
Dewpoint: 26.0°C (79°F) [RH = 94%]
Pressure (altimeter): 29.82 inches Hg (1010.0 mb)
Winds: variable direction winds at 1 MPH (1 knots; 0.5 m/s)
Visibility: 5 miles ( 8 km)
Ceiling: 1300 feet AGL
Clouds: broken clouds at 1300 feet AGL
few clouds at 1600 feet AGL
Weather: no significant weather observed at this time

METAR text: FKKD 180100Z 11004KT 9999 BKN016 FEW020CB 26/26 Q1010 NOSIG
Conditions at: FKKD (DOUALA (CIV/MIL), CM) observed 0100 UTC 18 January 2019
Temperature: 26.0°C (79°F)
Dewpoint: 26.0°C (79°F) [RH = 100%]
Pressure (altimeter): 29.82 inches Hg (1010.0 mb)
Winds: from the ESE (110 degrees) at 5 MPH (4 knots; 2.1 m/s)
Visibility: 6 or more miles (10+ km)
Ceiling: 1600 feet AGL
Clouds: broken clouds at 1600 feet AGL
few clouds at 2000 feet AGL
Weather: no significant weather observed at this time

Forecast for: COR
Text: TAF COR FKKD 190500Z 1906/2012 24005KT 8000 BKN013 FEW020CB
Forecast period: 0600 to 0900 UTC 19 January 2019
Forecast type: FROM: standard forecast or significant change
Winds: from the WSW (240 degrees) at 6 MPH (5 knots; 2.6 m/s)
Visibility: 5 miles (8 km)
Ceiling: 1300 feet AGL
Clouds: broken clouds at 1300 feet AGL
few clouds at 2000 feet AGL
Weather: no significant weather forecast for this period
Text: TEMPO 1906/1908 2000 TS BR
Forecast period: 0600 to 0800 UTC 19 January 2019
Forecast type: TEMPORARY: The following changes expected for less than half the time period
Visibility: 1.24 miles (2.00 km)
Ceiling: unknown
Clouds: missing
Weather: TS BR  (thunderstorm, mist)
Text: BECMG 1909/1911 BKN016 FEW020CB
Forecast period: 0900 UTC 19 January 2019 to 1200 UTC 20 January 2019
Forecast type: BECOMING: Conditions expected to become as follows by 1100 UTC 19 January 2019
Winds: from the WSW (240 degrees) at 6 MPH (5 knots; 2.6 m/s)
Visibility: 5 miles (8 km)
Ceiling: 1600 feet AGL
Clouds: broken clouds at 1600 feet AGL
few clouds at 2000 feet AGL
Weather: no significant weather forecast for this period